Time;durP1;ratioP1;P1;durP2;ratioP2;P2;SDS_P1;SDS_P2;PMS_P1;PMS_P2;Temp;Humidity;BMP_temperature;BMP_pressure;BME280_temperature;BME280_humidity;BME280_pressure;Samples;Min_cycle;Max_cycle;Signal;HPM_P1;HPM_P2
2022/08/19 00:01:17;;;;;;;15.73;11.67;;;19.50;99.90;;;;;;5050903;28;20985;-54
2022/08/19 00:03:43;;;;;;;17.50;13.40;;;19.40;99.90;;;;;;5048087;28;20245;-54
2022/08/19 00:06:09;;;;;;;16.17;12.10;;;19.40;99.90;;;;;;5041492;28;20238;-53
2022/08/19 00:08:35;;;;;;;19.80;13.50;;;19.30;99.90;;;;;;5042055;28;20186;-54
2022/08/19 00:11:01;;;;;;;15.63;11.50;;;19.40;99.90;;;;;;5049428;28;20771;-54
2022/08/19 00:13:28;;;;;;;20.97;13.40;;;19.40;1.00;;;;;;5041209;28;20261;-54
2022/08/19 00:15:54;;;;;;;13.63;11.60;;;19.40;99.90;;;;;;5052027;28;20194;-54
2022/08/19 00:18:20;;;;;;;21.87;15.70;;;19.40;99.90;;;;;;5051839;28;20431;-53
2022/08/19 00:20:46;;;;;;;28.47;14.90;;;19.40;99.90;;;;;;5034818;28;20457;-53
2022/08/19 00:23:11;;;;;;;23.73;17.20;;;19.40;99.90;;;;;;5046630;28;20238;-55
2022/08/19 00:25:37;;;;;;;28.67;17.63;;;19.40;1.00;;;;;;5071679;28;20170;-53
2022/08/19 00:28:04;;;;;;;36.97;22.33;;;19.40;1.00;;;;;;5063688;28;20699;-54
2022/08/19 00:30:30;;;;;;;25.10;17.83;;;19.50;1.00;;;;;;5048300;28;20511;-54
2022/08/19 00:32:57;;;;;;;31.37;19.97;;;19.40;1.00;;;;;;5051688;28;20496;-54
2022/08/19 00:35:22;;;;;;;31.27;21.97;;;19.50;1.00;;;;;;5049729;28;20907;-54
2022/08/19 00:37:49;;;;;;;30.07;21.03;;;19.50;1.00;;;;;;5051609;28;20428;-54
2022/08/19 00:40:18;;;;;;;34.83;23.30;;;19.40;99.90;;;;;;5043641;28;20598;-54
2022/08/19 00:42:44;;;;;;;28.93;20.30;;;19.40;1.00;;;;;;5031240;28;20837;-54
2022/08/19 00:45:21;;;;;;;32.50;19.97;;;19.50;1.00;;;;;;5040469;28;20452;-54
2022/08/19 00:47:47;;;;;;;26.97;18.37;;;19.40;1.00;;;;;;5042974;28;20825;-54
2022/08/19 00:50:16;;;;;;;42.90;23.97;;;19.50;1.00;;;;;;5049851;28;20436;-54
2022/08/19 00:52:45;;;;;;;40.07;26.23;;;19.50;99.90;;;;;;5051423;28;20174;-54
2022/08/19 00:55:18;;;;;;;41.57;25.03;;;19.40;99.90;;;;;;5036041;28;20535;-54
2022/08/19 00:57:50;;;;;;;45.50;27.70;;;19.40;1.00;;;;;;5049397;28;21177;-54
2022/08/19 01:00:18;;;;;;;36.23;23.57;;;19.30;1.00;;;;;;5034316;28;20440;-54
2022/08/19 01:02:44;;;;;;;44.30;27.80;;;19.30;1.00;;;;;;5038511;28;20472;-54
2022/08/19 01:05:14;;;;;;;37.07;24.77;;;19.20;1.00;;;;;;5044530;28;20438;-55
2022/08/19 01:07:41;;;;;;;39.30;23.63;;;19.20;1.00;;;;;;5033803;28;20447;-53
2022/08/19 01:10:13;;;;;;;44.13;25.00;;;19.20;1.00;;;;;;5042929;28;20449;-54
2022/08/19 01:12:40;;;;;;;35.27;23.37;;;19.20;1.00;;;;;;5050803;28;20463;-54
2022/08/19 01:15:08;;;;;;;38.10;25.40;;;19.20;1.00;;;;;;5041724;28;20532;-54
2022/08/19 01:17:36;;;;;;;38.70;23.80;;;19.20;1.00;;;;;;5049447;28;20425;-54
2022/08/19 01:20:03;;;;;;;31.20;20.20;;;19.30;1.00;;;;;;5034236;28;20560;-54
2022/08/19 01:22:54;;;;;;;41.87;22.50;;;19.20;1.00;;;;;;5030752;28;20564;-53
2022/08/19 01:25:26;;;;;;;33.67;21.03;;;19.20;1.00;;;;;;5040056;28;20476;-53
2022/08/19 01:27:52;;;;;;;28.67;20.53;;;19.20;1.00;;;;;;5050754;28;20409;-54
2022/08/19 01:30:28;;;;;;;36.83;22.67;;;19.20;1.00;;;;;;5048323;28;20940;-54
2022/08/19 01:32:55;;;;;;;32.20;20.67;;;19.20;1.00;;;;;;5048758;28;20502;-54
2022/08/19 01:35:23;;;;;;;36.77;21.70;;;19.30;1.00;;;;;;5031337;28;20510;-55
2022/08/19 01:38:00;;;;;;;32.77;22.03;;;19.20;57.00;;;;;;5030823;28;20402;-54
2022/08/19 01:40:30;;;;;;;34.00;22.50;;;19.20;99.90;;;;;;5036251;28;21165;-54
2022/08/19 01:42:56;;;;;;;37.13;22.60;;;19.20;99.90;;;;;;5045843;28;20476;-54
2022/08/19 01:45:25;;;;;;;37.50;23.10;;;19.20;99.90;;;;;;5047325;28;20928;-55
2022/08/19 01:47:51;;;;;;;35.60;23.57;;;19.20;99.90;;;;;;5047855;28;20924;-54
2022/08/19 01:50:16;;;;;;;38.90;22.37;;;19.20;99.90;;;;;;5030652;28;20413;-54
2022/08/19 01:52:43;;;;;;;39.33;23.00;;;19.20;99.90;;;;;;5039603;28;20845;-54
2022/08/19 01:55:15;;;;;;;37.93;22.90;;;19.20;99.90;;;;;;5048392;28;20309;-55
2022/08/19 01:57:45;;;;;;;40.67;22.87;;;19.10;99.90;;;;;;5030656;28;20425;-54
2022/08/19 02:00:15;;;;;;;44.97;25.83;;;19.10;99.90;;;;;;5031264;28;20456;-54
2022/08/19 02:02:41;;;;;;;36.83;23.80;;;19.10;1.00;;;;;;5030812;28;20996;-55
2022/08/19 02:05:08;;;;;;;45.10;24.20;;;19.00;1.00;;;;;;5030050;28;20912;-53
2022/08/19 02:07:34;;;;;;;38.13;21.70;;;19.00;99.90;;;;;;5030798;28;20887;-55
2022/08/19 02:10:06;;;;;;;37.43;22.20;;;19.00;99.90;;;;;;5041111;28;20463;-55
2022/08/19 02:12:32;;;;;;;43.00;23.53;;;18.90;99.90;;;;;;5050279;28;20432;-55
2022/08/19 02:14:59;;;;;;;41.33;24.90;;;18.90;1.00;;;;;;5031683;28;20499;-54
2022/08/19 02:17:25;;;;;;;40.20;23.23;;;19.00;58.70;;;;;;5030495;28;20206;-55
2022/08/19 02:19:50;;;;;;;41.67;23.73;;;19.00;1.00;;;;;;5045659;28;20449;-55
2022/08/19 02:22:16;;;;;;;43.87;23.57;;;19.00;1.00;;;;;;5030461;28;20235;-55
2022/08/19 02:24:42;;;;;;;42.73;23.10;;;19.00;1.00;;;;;;5044237;28;20268;-55
2022/08/19 02:27:07;;;;;;;44.03;24.13;;;19.00;1.00;;;;;;5053381;28;20174;-56
2022/08/19 02:29:33;;;;;;;40.93;23.20;;;19.10;1.00;;;;;;5052131;28;20293;-56
2022/08/19 02:31:59;;;;;;;47.40;25.37;;;19.00;1.00;;;;;;5039669;28;20283;-55
2022/08/19 02:34:24;;;;;;;45.03;25.10;;;19.00;1.00;;;;;;5040114;28;20301;-55
2022/08/19 02:36:51;;;;;;;47.60;24.37;;;19.00;44.10;;;;;;5053917;28;20508;-55
2022/08/19 02:39:17;;;;;;;51.57;24.87;;;19.00;99.90;;;;;;5046747;28;20542;-56
2022/08/19 02:41:43;;;;;;;56.33;28.30;;;18.90;99.90;;;;;;5033942;28;20532;-56
2022/08/19 02:44:08;;;;;;;56.13;27.93;;;18.90;1.00;;;;;;5034070;28;21314;-56
2022/08/19 02:46:36;;;;;;;51.97;26.70;;;18.90;99.90;;;;;;5033792;28;20190;-56
2022/08/19 02:49:05;;;;;;;61.97;28.47;;;18.80;99.90;;;;;;5046648;28;20221;-56
2022/08/19 02:51:36;;;;;;;61.90;28.03;;;18.80;99.90;;;;;;5053795;28;20900;-56
2022/08/19 02:54:03;;;;;;;72.47;30.80;;;18.80;1.00;;;;;;5040951;28;20977;-56
2022/08/19 02:56:30;;;;;;;70.00;31.37;;;18.80;1.50;;;;;;5033614;28;20905;-56
2022/08/19 02:58:58;;;;;;;60.77;29.33;;;18.80;1.00;;;;;;5045238;28;20797;-57
2022/08/19 03:01:32;;;;;;;71.03;31.93;;;18.70;1.00;;;;;;5035761;28;20441;-56
2022/08/19 03:04:01;;;;;;;76.83;32.17;;;18.70;99.90;;;;;;5033138;28;20978;-54
2022/08/19 03:06:27;;;;;;;74.33;29.67;;;18.80;99.90;;;;;;5033403;28;20898;-56
2022/08/19 03:08:53;;;;;;;69.73;32.23;;;18.80;1.00;;;;;;5040021;28;20445;-56
2022/08/19 03:11:27;;;;;;;77.47;31.67;;;18.80;99.90;;;;;;5045040;28;20519;-56
2022/08/19 03:13:53;;;;;;;71.83;30.80;;;18.70;99.90;;;;;;5040036;28;20450;-56
2022/08/19 03:16:20;;;;;;;68.40;29.57;;;18.70;99.90;;;;;;5046413;28;20509;-57
2022/08/19 03:18:46;;;;;;;69.13;30.77;;;18.70;1.00;;;;;;5053078;28;20421;-56
2022/08/19 03:21:23;;;;;;;63.63;29.10;;;18.70;1.00;;;;;;5041503;28;20450;-55
2022/08/19 03:23:49;;;;;;;69.13;31.10;;;18.70;99.90;;;;;;5032875;28;20246;-56
2022/08/19 03:26:16;;;;;;;61.23;26.93;;;18.70;99.90;;;;;;5042502;28;20445;-57
2022/08/19 03:28:43;;;;;;;68.67;28.20;;;18.70;1.00;;;;;;5052753;28;20417;-56
2022/08/19 03:31:12;;;;;;;61.77;27.00;;;18.60;99.90;;;;;;5050891;28;20941;-56
2022/08/19 03:33:40;;;;;;;70.20;29.10;;;18.60;1.00;;;;;;5052676;28;20496;-50
2022/08/19 03:36:10;;;;;;;59.50;28.57;;;18.50;91.90;;;;;;5041864;28;20939;-50
2022/08/19 03:38:38;;;;;;;59.00;27.80;;;18.50;1.00;;;;;;5032344;28;20529;-50
2022/08/19 03:41:10;;;;;;;47.27;25.70;;;18.50;99.90;;;;;;5032757;28;20409;-50
2022/08/19 03:43:40;;;;;;;53.87;27.23;;;18.50;1.00;;;;;;5046424;28;20483;-50
2022/08/19 03:46:11;;;;;;;59.00;27.50;;;18.50;1.00;;;;;;5052141;28;21251;-50
2022/08/19 03:48:39;;;;;;;58.13;26.50;;;18.50;1.00;;;;;;5052526;28;20420;-50
2022/08/19 03:51:06;;;;;;;69.37;30.47;;;18.50;1.00;;;;;;5046662;28;21003;-56
2022/08/19 03:53:34;;;;;;;64.87;28.93;;;18.50;1.00;;;;;;5052362;28;20432;-57
2022/08/19 03:56:00;;;;;;;63.67;29.00;;;18.40;34.40;;;;;;5048527;28;20495;-58
2022/08/19 03:58:28;;;;;;;67.10;29.93;;;18.40;96.60;;;;;;5032313;28;20402;-57
2022/08/19 04:00:56;;;;;;;79.23;29.87;;;18.50;99.90;;;;;;5033043;28;20530;-57
2022/08/19 04:03:23;;;;;;;69.27;31.67;;;18.40;99.90;;;;;;5036427;28;20472;-53
2022/08/19 04:05:48;;;;;;;71.37;30.10;;;18.40;99.90;;;;;;5051320;28;20440;-57
2022/08/19 04:08:20;;;;;;;72.47;33.50;;;18.40;99.90;;;;;;5052070;28;20462;-57
2022/08/19 04:10:47;;;;;;;71.23;32.20;;;18.50;99.90;;;;;;5051323;28;20205;-57
2022/08/19 04:13:14;;;;;;;81.77;33.50;;;18.50;99.90;;;;;;5033465;28;20446;-52
2022/08/19 04:15:46;;;;;;;93.43;37.37;;;18.50;99.90;;;;;;5041948;28;20483;-58
2022/08/19 04:18:12;;;;;;;77.30;35.10;;;18.40;99.90;;;;;;5045449;28;20524;-58
2022/08/19 04:20:40;;;;;;;89.97;34.50;;;18.40;99.90;;;;;;5030576;28;20480;-58
2022/08/19 04:23:06;;;;;;;87.40;36.30;;;18.40;99.90;;;;;;5036323;28;20567;-59
2022/08/19 04:25:50;;;;;;;87.70;36.83;;;18.40;99.90;;;;;;5050238;28;20890;-60
2022/08/19 04:28:16;;;;;;;70.60;35.33;;;18.40;99.90;;;;;;5051593;28;20182;-59
2022/08/19 04:30:45;;;;;;;81.83;37.10;;;18.40;99.90;;;;;;5049456;28;20495;-59
2022/08/19 04:33:12;;;;;;;79.37;35.00;;;18.40;99.90;;;;;;5051544;28;20448;-60
2022/08/19 04:35:41;;;;;;;76.97;35.30;;;18.40;99.90;;;;;;5050771;28;20773;-61
2022/08/19 04:38:07;;;;;;;72.33;35.20;;;18.40;99.90;;;;;;5051544;28;20788;-61
2022/08/19 04:43:18;;;;;;;84.27;35.77;;;18.30;99.90;;;;;;5031516;28;20488;-67
2022/08/19 04:45:45;;;;;;;85.70;37.07;;;18.30;99.90;;;;;;5033406;28;20473;-62
2022/08/19 04:48:12;;;;;;;86.90;37.80;;;18.30;99.90;;;;;;5050951;28;20651;-61
2022/08/19 04:50:41;;;;;;;63.73;33.00;;;18.30;99.90;;;;;;5050239;28;20452;-56
2022/08/19 04:53:07;;;;;;;58.70;32.13;;;18.30;99.90;;;;;;5048457;28;20875;-63
2022/08/19 04:55:33;;;;;;;54.73;30.30;;;18.20;99.90;;;;;;5041421;28;20479;-64
2022/08/19 04:57:59;;;;;;;69.13;30.97;;;18.20;99.90;;;;;;5041910;28;20186;-64
2022/08/19 05:00:25;;;;;;;59.37;27.83;;;18.10;99.90;;;;;;5051231;28;20235;-63
2022/08/19 05:02:50;;;;;;;58.40;28.97;;;18.10;99.90;;;;;;5050745;28;20456;-62
2022/08/19 05:05:17;;;;;;;51.87;28.70;;;18.10;99.90;;;;;;5045317;28;20284;-64
2022/08/19 05:07:42;;;;;;;53.43;28.40;;;18.00;99.90;;;;;;5031234;28;20186;-64
2022/08/19 05:10:08;;;;;;;50.17;28.60;;;18.00;99.90;;;;;;5031376;28;20428;-65
2022/08/19 05:12:34;;;;;;;55.47;28.60;;;18.00;99.90;;;;;;5031000;28;20393;-65
2022/08/19 05:15:00;;;;;;;40.47;24.60;;;18.00;99.90;;;;;;5031015;28;20414;-65
2022/08/19 05:17:27;;;;;;;53.00;26.17;;;18.00;99.90;;;;;;5045849;28;20190;-64
2022/08/19 05:22:37;;;;;;;56.13;25.90;;;18.00;99.90;;;;;;5033784;28;20549;-65
2022/08/19 05:25:11;;;;;;;48.83;25.97;;;18.00;99.90;;;;;;5042555;28;20838;-66
2022/08/19 05:27:37;;;;;;;46.57;24.47;;;18.00;99.90;;;;;;5043493;28;20186;-66
2022/08/19 05:30:04;;;;;;;48.03;24.50;;;18.00;99.90;;;;;;5046142;28;20549;-67
2022/08/19 05:32:29;;;;;;;54.30;24.70;;;18.00;99.90;;;;;;5043484;28;20660;-68
2022/08/19 05:34:55;;;;;;;45.87;23.00;;;18.00;99.90;;;;;;5044435;28;20481;-70
2022/08/19 05:37:21;;;;;;;42.30;23.53;;;18.00;99.90;;;;;;5052114;28;20189;-70
2022/08/19 05:39:48;;;;;;;41.23;23.00;;;18.00;99.90;;;;;;5052277;28;20181;-70
2022/08/19 05:42:15;;;;;;;42.00;23.43;;;17.90;99.90;;;;;;5052640;28;20402;-72
2022/08/19 05:44:43;;;;;;;42.00;22.63;;;18.00;99.90;;;;;;5052447;28;20448;-72
2022/08/19 05:47:11;;;;;;;38.77;23.90;;;18.00;99.90;;;;;;5052647;28;20513;-58
2022/08/19 05:49:38;;;;;;;40.60;21.77;;;17.90;99.90;;;;;;5052917;28;20500;-74
2022/08/19 05:52:10;;;;;;;43.73;22.60;;;18.00;99.90;;;;;;5052815;28;20443;-73
2022/08/19 05:54:40;;;;;;;41.10;22.03;;;18.00;99.90;;;;;;5052967;28;20404;-71
2022/08/19 05:57:06;;;;;;;43.63;20.57;;;18.00;99.90;;;;;;5052982;28;20401;-71
2022/08/19 05:59:35;;;;;;;37.97;21.40;;;18.00;99.90;;;;;;5052644;28;20452;-69
2022/08/19 06:02:00;;;;;;;40.83;22.50;;;18.00;99.90;;;;;;5055425;28;20482;-68
2022/08/19 06:04:26;;;;;;;36.53;21.47;;;18.10;99.90;;;;;;5052562;28;20468;-68
2022/08/19 06:06:53;;;;;;;36.50;21.03;;;18.10;99.90;;;;;;5045881;28;20305;-66
2022/08/19 06:09:20;;;;;;;35.10;20.53;;;18.20;99.90;;;;;;5050231;28;20244;-66
2022/08/19 06:11:53;;;;;;;39.67;21.30;;;18.20;99.90;;;;;;5054368;28;20792;-66
2022/08/19 06:14:22;;;;;;;36.33;20.57;;;18.20;99.90;;;;;;5051834;28;20809;-65
2022/08/19 06:16:48;;;;;;;33.40;19.37;;;18.30;99.90;;;;;;5052971;28;20519;-65
2022/08/19 06:19:16;;;;;;;40.53;22.93;;;18.30;99.90;;;;;;5053887;28;20519;-65
2022/08/19 06:21:44;;;;;;;43.10;21.50;;;18.30;99.90;;;;;;5051245;28;20247;-65
2022/08/19 06:24:13;;;;;;;34.67;19.37;;;18.40;99.90;;;;;;5050143;28;20506;-65
2022/08/19 06:26:41;;;;;;;40.47;19.50;;;18.50;99.90;;;;;;5054131;28;20934;-63
2022/08/19 06:29:10;;;;;;;43.73;19.87;;;18.50;99.90;;;;;;5052464;28;20446;-63
2022/08/19 06:31:36;;;;;;;37.60;17.30;;;18.60;99.90;;;;;;5046826;28;20441;-61
2022/08/19 06:34:04;;;;;;;37.63;22.53;;;18.70;99.90;;;;;;5051945;28;20468;-63
2022/08/19 06:36:33;;;;;;;39.13;21.27;;;18.70;99.90;;;;;;5050541;28;20448;-62
2022/08/19 06:39:04;;;;;;;39.67;21.53;;;18.70;99.90;;;;;;5036960;28;20473;-62
2022/08/19 06:41:30;;;;;;;37.73;19.93;;;18.80;99.90;;;;;;5050795;28;20845;-63
2022/08/19 06:43:57;;;;;;;35.90;22.00;;;18.70;99.90;;;;;;5050673;28;20477;-63
2022/08/19 06:46:23;;;;;;;29.33;17.53;;;18.70;99.90;;;;;;5053160;28;20444;-63
2022/08/19 06:48:48;;;;;;;29.43;18.53;;;18.60;99.90;;;;;;5049737;28;20443;-63
2022/08/19 06:51:18;;;;;;;31.00;18.43;;;18.60;99.90;;;;;;5049676;28;20218;-62
2022/08/19 06:53:48;;;;;;;33.87;19.73;;;18.70;99.90;;;;;;5053515;28;20221;-62
2022/08/19 06:56:16;;;;;;;33.83;19.40;;;18.60;99.90;;;;;;5053694;28;20420;-63
2022/08/19 06:58:42;;;;;;;35.27;19.63;;;18.60;99.90;;;;;;5053670;28;20832;-64
2022/08/19 07:01:08;;;;;;;30.07;16.67;;;18.60;99.90;;;;;;5053497;28;20496;-63
2022/08/19 07:03:36;;;;;;;35.63;20.73;;;18.60;99.90;;;;;;5054471;28;20218;-62
2022/08/19 07:06:15;;;;;;;30.93;21.47;;;18.70;99.90;;;;;;5053577;28;20918;-66
2022/08/19 07:08:42;;;;;;;38.57;20.30;;;18.70;99.90;;;;;;5052619;28;20452;-61
2022/08/19 07:11:09;;;;;;;33.30;18.27;;;18.70;99.90;;;;;;5052937;28;20417;-61
2022/08/19 07:13:36;;;;;;;29.80;17.87;;;18.80;99.90;;;;;;5052990;28;20405;-61
2022/08/19 07:16:12;;;;;;;28.70;17.27;;;18.80;84.70;;;;;;5053122;28;20444;-61
2022/08/19 07:18:38;;;;;;;21.17;14.30;;;18.80;65.00;;;;;;5053293;28;20411;-61
2022/08/19 07:21:13;;;;;;;30.87;15.40;;;18.70;64.40;;;;;;5053135;28;20455;-60
2022/08/19 07:23:38;;;;;;;25.17;16.30;;;18.80;88.20;;;;;;5052745;28;20483;-60
2022/08/19 07:26:26;;;;;;;23.93;14.93;;;18.90;45.60;;;;;;5053149;28;20436;-53
2022/08/19 07:28:52;;;;;;;21.60;14.03;;;18.90;11.00;;;;;;5052801;28;20182;-59
2022/08/19 07:31:21;;;;;;;23.13;14.07;;;18.90;1.00;;;;;;5052980;28;20409;-59
2022/08/19 07:33:49;;;;;;;20.80;13.00;;;19.00;1.00;;;;;;5052946;28;20908;-59
2022/08/19 07:36:18;;;;;;;21.77;14.17;;;19.00;1.00;;;;;;5052785;28;20436;-59
2022/08/19 07:38:47;;;;;;;23.00;12.63;;;19.10;1.00;;;;;;5052365;28;20444;-56
2022/08/19 07:41:15;;;;;;;21.63;13.00;;;19.10;1.00;;;;;;5052814;28;20469;-59
2022/08/19 07:43:43;;;;;;;16.97;11.57;;;19.10;1.00;;;;;;5052349;28;20514;-58
2022/08/19 07:46:09;;;;;;;16.50;11.63;;;19.10;1.00;;;;;;5052448;28;20425;-58
2022/08/19 07:48:35;;;;;;;17.27;11.37;;;19.10;1.00;;;;;;5052596;28;20450;-59
2022/08/19 07:51:05;;;;;;;14.70;11.17;;;19.10;1.00;;;;;;5052413;28;20413;-61
2022/08/19 07:53:32;;;;;;;18.00;11.73;;;19.10;1.00;;;;;;5052589;28;20171;-58
2022/08/19 07:56:03;;;;;;;16.00;11.20;;;19.10;1.00;;;;;;5052302;28;20459;-58
2022/08/19 07:58:32;;;;;;;16.07;11.23;;;19.20;1.00;;;;;;5052344;28;20478;-52
2022/08/19 08:00:59;;;;;;;19.87;11.50;;;19.20;1.00;;;;;;5052368;28;20917;-57
2022/08/19 08:09:10;;;;;;;24.40;13.00;;;19.30;99.90;;;;;;5052176;28;20793;-57
2022/08/19 08:09:20;;;;;;;14.30;10.00;;;19.20;99.90;;;;;;5052407;28;20415;-57
2022/08/19 08:11:52;;;;;;;17.10;12.07;;;19.20;1.00;;;;;;5052276;28;20401;-57
2022/08/19 08:14:25;;;;;;;19.63;12.30;;;19.20;1.00;;;;;;5051890;28;20545;-58
2022/08/19 08:16:52;;;;;;;20.00;13.10;;;19.20;99.90;;;;;;5052105;28;20443;-57
2022/08/19 08:19:24;;;;;;;25.07;14.00;;;19.20;99.90;;;;;;5051833;28;20429;-60
2022/08/19 08:21:50;;;;;;;29.07;15.47;;;19.20;99.90;;;;;;5051697;28;20573;-57
2022/08/19 08:24:17;;;;;;;30.07;18.27;;;19.20;99.90;;;;;;5050934;28;20984;-58
2022/08/19 08:26:44;;;;;;;26.50;14.83;;;19.20;99.90;;;;;;5051778;28;20412;-57
2022/08/19 08:29:15;;;;;;;25.23;16.93;;;19.20;99.90;;;;;;5052013;28;20902;-58
2022/08/19 08:31:42;;;;;;;30.83;15.90;;;19.20;99.90;;;;;;5051774;28;20402;-59
2022/08/19 08:34:09;;;;;;;25.13;15.37;;;19.30;1.00;;;;;;5051770;28;20417;-56
2022/08/19 08:36:44;;;;;;;21.43;13.13;;;19.30;99.90;;;;;;5051093;28;20440;-57
2022/08/19 08:39:20;;;;;;;23.77;16.13;;;19.40;99.90;;;;;;5051314;28;20425;-57
2022/08/19 08:41:58;;;;;;;28.40;17.77;;;19.40;99.90;;;;;;5044847;28;20519;-57
2022/08/19 08:44:39;;;;;;;27.00;17.17;;;19.40;99.90;;;;;;5051679;28;20448;-57
2022/08/19 08:47:12;;;;;;;31.97;18.53;;;19.60;99.90;;;;;;5051416;28;20459;-57
2022/08/19 08:49:44;;;;;;;29.63;17.67;;;19.70;99.90;;;;;;5050265;28;20508;-57
2022/08/19 08:52:19;;;;;;;31.63;19.67;;;19.80;99.90;;;;;;5051345;28;20751;-57
2022/08/19 08:54:48;;;;;;;23.57;15.70;;;19.80;61.30;;;;;;5051268;28;20486;-57
2022/08/19 08:57:23;;;;;;;32.07;17.40;;;19.90;99.90;;;;;;5050939;28;20455;-57
2022/08/19 08:59:53;;;;;;;28.37;17.07;;;19.90;39.90;;;;;;5050901;28;20420;-56
2022/08/19 09:02:19;;;;;;;21.67;15.43;;;19.90;1.00;;;;;;5051318;28;20474;-57
2022/08/19 09:04:45;;;;;;;31.33;16.23;;;19.80;1.00;;;;;;5051171;28;20864;-56
2022/08/19 09:07:58;;;;;;;24.53;16.00;;;19.80;1.00;;;;;;5051333;28;20409;-56
2022/08/19 09:10:32;;;;;;;34.47;16.60;;;19.80;1.00;;;;;;5008666;28;20481;-56
2022/08/19 09:13:23;;;;;;;22.53;16.53;;;19.90;41.20;;;;;;5008935;28;20508;-50
2022/08/19 09:15:58;;;;;;;26.97;16.57;;;20.00;1.00;;;;;;5037789;28;20933;-50
2022/08/19 09:18:23;;;;;;;22.40;14.40;;;20.00;1.00;;;;;;5050880;28;20731;-50
2022/08/19 09:20:49;;;;;;;23.17;13.50;;;20.10;1.00;;;;;;5049844;28;20432;-50
2022/08/19 09:23:15;;;;;;;21.93;14.40;;;20.30;1.00;;;;;;5050713;28;20245;-50
2022/08/19 09:25:41;;;;;;;22.50;13.20;;;20.40;99.90;;;;;;5050812;28;20182;-50
2022/08/19 09:28:07;;;;;;;18.97;12.57;;;20.50;99.90;;;;;;5050820;28;20420;-51
2022/08/19 09:30:39;;;;;;;16.20;11.77;;;20.50;1.00;;;;;;5050984;28;20852;-50
2022/08/19 09:33:06;;;;;;;30.90;14.13;;;20.60;1.00;;;;;;5050637;28;20471;-51
2022/08/19 09:35:32;;;;;;;20.37;12.50;;;20.70;99.90;;;;;;5050673;28;20454;-50
2022/08/19 09:37:59;;;;;;;19.10;14.13;;;20.60;99.90;;;;;;5050663;28;20424;-51
2022/08/19 09:40:26;;;;;;;20.87;13.67;;;20.60;99.90;;;;;;5050609;28;20759;-51
2022/08/19 09:42:52;;;;;;;26.93;15.70;;;20.50;1.00;;;;;;5050637;28;20914;-50
2022/08/19 09:45:23;;;;;;;24.40;15.37;;;20.40;1.00;;;;;;5050870;28;20444;-50
2022/08/19 09:47:52;;;;;;;17.80;12.40;;;20.40;1.00;;;;;;5049579;28;20454;-50
2022/08/19 09:50:18;;;;;;;24.37;15.70;;;20.50;99.90;;;;;;5050622;28;20407;-50
2022/08/19 09:52:45;;;;;;;26.33;15.47;;;20.50;99.90;;;;;;5050535;28;20416;-51
2022/08/19 09:55:11;;;;;;;25.07;16.60;;;20.60;99.90;;;;;;5050574;28;20220;-50
2022/08/19 09:57:37;;;;;;;27.73;16.13;;;20.80;1.00;;;;;;5050476;28;20393;-50
2022/08/19 10:00:08;;;;;;;23.40;16.33;;;20.80;1.00;;;;;;5050435;28;20426;-50
2022/08/19 10:02:35;;;;;;;24.30;17.40;;;20.80;1.00;;;;;;5050579;28;20175;-50
2022/08/19 10:07:45;;;;;;;38.77;24.13;;;20.70;1.00;;;;;;5050612;28;20443;-50
2022/08/19 10:10:10;;;;;;;27.53;19.80;;;20.80;1.00;;;;;;5050221;28;20512;-50
2022/08/19 10:12:36;;;;;;;27.23;17.83;;;20.70;1.00;;;;;;5050390;28;20178;-50
2022/08/19 10:15:03;;;;;;;33.03;19.90;;;20.60;1.00;;;;;;5050581;28;20183;-50
2022/08/19 10:17:28;;;;;;;28.80;18.80;;;20.60;1.00;;;;;;5050394;28;20401;-51
2022/08/19 10:19:54;;;;;;;27.50;18.00;;;20.50;99.90;;;;;;5050566;28;20785;-50
2022/08/19 10:22:20;;;;;;;29.77;19.20;;;20.40;99.90;;;;;;5050394;28;20743;-50
2022/08/19 10:24:46;;;;;;;31.17;20.40;;;20.40;99.90;;;;;;5050159;28;20233;-50
2022/08/19 10:27:13;;;;;;;36.17;18.57;;;20.40;99.90;;;;;;5050190;28;20175;-50
2022/08/19 10:29:39;;;;;;;28.37;18.97;;;20.40;1.00;;;;;;5050289;28;20413;-50
2022/08/19 10:32:08;;;;;;;28.23;18.33;;;20.50;1.00;;;;;;5050152;28;20432;-50
2022/08/19 10:34:35;;;;;;;31.40;18.60;;;20.40;1.00;;;;;;5050192;28;20182;-50
2022/08/19 10:37:02;;;;;;;28.20;18.93;;;20.50;1.00;;;;;;5050321;28;20405;-50
2022/08/19 10:39:33;;;;;;;27.80;17.77;;;20.40;1.00;;;;;;5050303;28;20401;-50
2022/08/19 10:42:03;;;;;;;31.53;17.70;;;20.50;1.00;;;;;;5050107;28;20404;-50
2022/08/19 10:44:29;;;;;;;28.97;19.30;;;20.40;1.00;;;;;;5050479;28;20539;-50
2022/08/19 10:46:55;;;;;;;33.40;20.43;;;20.40;1.00;;;;;;5051021;28;20424;-50
2022/08/19 10:49:22;;;;;;;35.57;22.63;;;20.40;1.00;;;;;;5053706;28;20401;-50
2022/08/19 10:57:17;;;;;;;27.30;18.90;;;20.50;99.90;;;;;;5053609;28;20415;-50
2022/08/19 10:59:42;;;;;;;32.00;18.90;;;20.50;1.00;;;;;;5053528;28;20480;-50
2022/08/19 11:02:10;;;;;;;30.87;18.63;;;20.60;1.00;;;;;;5053431;28;20174;-50
2022/08/19 11:04:36;;;;;;;27.10;19.77;;;20.70;1.00;;;;;;5053322;28;20202;-50
2022/08/19 11:07:04;;;;;;;32.67;19.57;;;20.90;99.90;;;;;;5053163;28;20401;-50
2022/08/19 11:09:30;;;;;;;31.77;19.13;;;21.10;99.90;;;;;;5053226;28;20559;-51
2022/08/19 11:11:56;;;;;;;28.17;17.70;;;21.30;1.00;;;;;;5053238;28;20482;-50
2022/08/19 11:14:25;;;;;;;28.13;16.37;;;21.40;99.90;;;;;;5053169;28;20401;-50
2022/08/19 11:16:55;;;;;;;28.73;18.20;;;21.50;99.90;;;;;;5053029;28;20208;-50
2022/08/19 11:19:23;;;;;;;27.80;17.93;;;21.70;1.00;;;;;;5052952;28;20408;-51
2022/08/19 11:21:50;;;;;;;27.17;17.87;;;22.00;99.90;;;;;;5052682;28;20472;-51
2022/08/19 11:24:22;;;;;;;26.83;17.23;;;22.50;6.00;;;;;;5051001;28;20504;-51
2022/08/19 11:26:50;;;;;;;26.07;17.70;;;23.10;1.00;;;;;;5052173;28;20428;-51
2022/08/19 11:29:18;;;;;;;23.70;16.10;;;23.40;1.00;;;;;;5049903;28;20903;-51
2022/08/19 11:31:47;;;;;;;21.93;14.33;;;23.50;1.00;;;;;;5048658;28;20436;-51
2022/08/19 11:34:17;;;;;;;22.20;15.43;;;23.30;1.00;;;;;;5050331;28;20512;-51
2022/08/19 11:36:44;;;;;;;25.27;16.20;;;23.00;1.00;;;;;;5043336;28;20477;-51
2022/08/19 11:39:13;;;;;;;25.47;16.50;;;22.80;1.00;;;;;;5040975;28;20506;-51
2022/08/19 11:41:38;;;;;;;27.50;16.90;;;22.60;1.00;;;;;;5047239;28;20536;-51
2022/08/19 11:44:07;;;;;;;22.60;16.53;;;22.40;1.00;;;;;;5044210;28;20548;-52
2022/08/19 11:46:36;;;;;;;25.30;16.40;;;22.30;1.00;;;;;;5063788;28;20191;-52
2022/08/19 11:49:04;;;;;;;25.97;15.97;;;22.30;1.00;;;;;;5051368;28;20927;-51
2022/08/19 11:51:30;;;;;;;21.63;15.87;;;22.50;1.00;;;;;;5048211;28;20859;-51
2022/08/19 11:53:58;;;;;;;23.50;15.10;;;22.80;1.00;;;;;;5050493;28;20452;-51
2022/08/19 11:56:25;;;;;;;17.33;13.80;;;23.10;1.00;;;;;;5033505;28;20487;-51
2022/08/19 11:58:52;;;;;;;19.40;14.47;;;23.30;1.00;;;;;;5042304;28;20441;-51
2022/08/19 12:01:20;;;;;;;19.27;15.73;;;23.40;1.00;;;;;;5051195;28;20523;-51
2022/08/19 12:03:48;;;;;;;23.13;16.10;;;23.20;1.00;;;;;;5051229;28;21287;-51
2022/08/19 12:06:17;;;;;;;19.13;14.50;;;22.90;1.00;;;;;;5052077;28;20458;-51
2022/08/19 12:08:44;;;;;;;25.23;16.47;;;22.50;1.00;;;;;;5047315;28;20501;-51
2022/08/19 12:11:11;;;;;;;22.90;16.40;;;22.30;1.00;;;;;;5051019;28;20993;-51
2022/08/19 12:13:38;;;;;;;18.90;14.27;;;22.20;1.00;;;;;;5050841;28;20444;-51
2022/08/19 12:16:12;;;;;;;21.30;18.37;;;22.40;1.00;;;;;;5046790;28;20441;-51
2022/08/19 12:18:41;;;;;;;17.03;13.63;;;22.60;1.00;;;;;;5051668;28;20428;-51
2022/08/19 12:21:06;;;;;;;18.50;15.00;;;22.90;1.00;;;;;;5050655;28;20448;-51
2022/08/19 12:23:32;;;;;;;17.33;14.03;;;23.40;1.00;;;;;;5050607;28;20484;-52
2022/08/19 12:25:57;;;;;;;17.33;13.70;;;24.00;1.00;;;;;;5050539;28;20220;-52
2022/08/19 12:28:24;;;;;;;18.07;13.07;;;24.80;1.00;;;;;;5051899;28;20214;-51
2022/08/19 12:30:51;;;;;;;19.50;14.67;;;25.40;99.90;;;;;;5051631;28;20316;-52
2022/08/19 12:33:23;;;;;;;20.70;14.03;;;25.50;99.90;;;;;;5050974;28;20443;-52
2022/08/19 12:35:50;;;;;;;15.57;13.23;;;25.40;99.90;;;;;;5051566;28;20894;-52
2022/08/19 12:38:16;;;;;;;13.10;11.40;;;25.60;99.90;;;;;;5050027;28;20847;-52
2022/08/19 12:40:44;;;;;;;17.97;13.67;;;25.70;99.90;;;;;;5051598;28;20404;-54
2022/08/19 12:43:11;;;;;;;19.50;15.20;;;25.60;99.90;;;;;;5050050;28;20228;-54
2022/08/19 12:45:37;;;;;;;17.83;13.40;;;25.70;99.90;;;;;;5051272;28;20428;-54
2022/08/19 12:48:04;;;;;;;15.93;12.43;;;26.40;99.90;;;;;;5049702;28;20432;-54
2022/08/19 12:50:30;;;;;;;14.43;11.90;;;26.80;99.90;;;;;;5051322;28;20957;-54
2022/08/19 12:52:57;;;;;;;13.00;11.60;;;27.20;99.90;;;;;;5050297;28;20494;-53